KEVU

Details ICAO KEVU
Name NORTHWEST MISSOURI RGNL
Region United States
Timezone America/Chicago (UTC-5.0)
Plans Departing 1
Arriving 9
Stats Elevation 1,150 ft / 351 m (AMSL)
Location 40.351908° -94.914710°
Runways 2
Magnetic Variation 1.804° E
Sunrise 2018-05-23 10:58:22 UTC / 2018-05-23 05:58:22 Local
Sunset 2018-05-24 01:37:22 UTC / 2018-05-23 20:37:22 Local
Advertisement - Login to hide

Runways

ID Width Length Bearing (true) Bearing (mag) Surface Threshold Offset Overrun Length
14 75 ft / 23 m 4,001 ft / 1,220 m 148.36° 146.56° Concrete 0 ft / 0 m 0 ft / 0 m
18 45 ft / 14 m 2,004 ft / 611 m 189.67° 187.87° Asphalt 0 ft / 0 m 0 ft / 0 m
32 75 ft / 23 m 4,001 ft / 1,220 m 328.37° 326.57° Concrete 0 ft / 0 m 0 ft / 0 m
36 45 ft / 14 m 2,004 ft / 611 m 9.67° 7.87° Asphalt 0 ft / 0 m 0 ft / 0 m

Map

Weather


0- 5 10 15 20 25 30 35+ Temperature / ° C

Clouds and Precipitation
Forecast for 2018-05-23 12:00 UTC. Updated 10 minutes ago

Ground ~20,000 ft ~40,000 ft Winds

METAR

KEVU 231115Z AUTO 15005KT 10SM CLR 19/14 A3007 RMK AO2

TAF

Not found

Frequencies

Recorded 118.22 MHz AWOS 3
Unicom 122.80 MHz CTAF/UNICOM
Warning: Do not use this data for real-world aviation or navigation. No guarantee of current accuracy is given.